sensor_id;sensor_type;location;lat;lon;timestamp;pressure;altitude;pressure_sealevel;temperature;humidity
1480;BME280;732;51.698;4.886;2023-05-14T00:01:51;102133.44;;;9.54;77.36
1480;BME280;732;51.698;4.886;2023-05-14T00:04:21;102134.44;;;9.43;77.80
1480;BME280;732;51.698;4.886;2023-05-14T00:06:50;102140.66;;;9.53;77.61
1480;BME280;732;51.698;4.886;2023-05-14T00:09:18;102142.47;;;9.53;77.56
1480;BME280;732;51.698;4.886;2023-05-14T00:11:47;102136.84;;;9.56;77.31
1480;BME280;732;51.698;4.886;2023-05-14T00:14:15;102136.94;;;9.54;77.41
1480;BME280;732;51.698;4.886;2023-05-14T00:16:43;102130.63;;;9.46;77.61
1480;BME280;732;51.698;4.886;2023-05-14T00:19:12;102120.75;;;9.56;77.37
1480;BME280;732;51.698;4.886;2023-05-14T00:21:42;102128.06;;;9.64;77.02
1480;BME280;732;51.698;4.886;2023-05-14T00:24:10;102116.97;;;9.49;77.28
1480;BME280;732;51.698;4.886;2023-05-14T00:26:38;102123.13;;;9.59;76.82
1480;BME280;732;51.698;4.886;2023-05-14T00:29:06;102125.47;;;9.72;76.25
1480;BME280;732;51.698;4.886;2023-05-14T00:31:34;102116.38;;;9.65;76.26
1480;BME280;732;51.698;4.886;2023-05-14T00:34:03;102114.94;;;9.61;76.14
1480;BME280;732;51.698;4.886;2023-05-14T00:36:31;102118.50;;;9.51;76.72
1480;BME280;732;51.698;4.886;2023-05-14T00:39:01;102106.81;;;9.42;77.22
1480;BME280;732;51.698;4.886;2023-05-14T00:41:29;102064.53;;;9.26;76.78
1480;BME280;732;51.698;4.886;2023-05-14T00:43:58;102114.09;;;9.60;76.56
1480;BME280;732;51.698;4.886;2023-05-14T00:46:26;102094.53;;;9.50;76.62
1480;BME280;732;51.698;4.886;2023-05-14T00:48:55;102094.97;;;9.45;76.75
1480;BME280;732;51.698;4.886;2023-05-14T00:51:24;102103.66;;;9.57;76.57
1480;BME280;732;51.698;4.886;2023-05-14T00:53:53;102106.34;;;9.57;76.36
1480;BME280;732;51.698;4.886;2023-05-14T00:56:23;102097.44;;;9.66;75.75
1480;BME280;732;51.698;4.886;2023-05-14T00:58:52;102090.91;;;9.41;76.47
1480;BME280;732;51.698;4.886;2023-05-14T01:01:21;102107.94;;;9.50;76.34
1480;BME280;732;51.698;4.886;2023-05-14T01:03:49;102099.91;;;9.40;76.59
1480;BME280;732;51.698;4.886;2023-05-14T01:06:27;102107.91;;;9.59;76.05
1480;BME280;732;51.698;4.886;2023-05-14T01:09:07;102093.97;;;9.36;76.80
1480;BME280;732;51.698;4.886;2023-05-14T01:11:46;102095.53;;;9.49;76.35
1480;BME280;732;51.698;4.886;2023-05-14T01:14:22;102081.41;;;9.47;75.66
1480;BME280;732;51.698;4.886;2023-05-14T01:16:55;102081.16;;;9.30;76.40
1480;BME280;732;51.698;4.886;2023-05-14T01:19:32;102090.44;;;9.46;76.60
1480;BME280;732;51.698;4.886;2023-05-14T01:22:03;102093.06;;;9.65;75.67
1480;BME280;732;51.698;4.886;2023-05-14T01:24:31;102071.56;;;9.47;75.62
1480;BME280;732;51.698;4.886;2023-05-14T01:27:08;102092.84;;;9.49;76.09
1480;BME280;732;51.698;4.886;2023-05-14T01:29:42;102055.19;;;9.31;75.90
1480;BME280;732;51.698;4.886;2023-05-14T01:32:12;102096.09;;;9.52;75.87
1480;BME280;732;51.698;4.886;2023-05-14T01:34:44;102084.38;;;9.53;75.11
1480;BME280;732;51.698;4.886;2023-05-14T01:37:15;102064.22;;;9.39;75.60
1480;BME280;732;51.698;4.886;2023-05-14T01:39:44;102074.53;;;9.44;75.48
1480;BME280;732;51.698;4.886;2023-05-14T01:42:13;102084.69;;;9.40;76.03
1480;BME280;732;51.698;4.886;2023-05-14T01:44:41;102075.38;;;9.45;75.61
1480;BME280;732;51.698;4.886;2023-05-14T01:47:10;102089.44;;;9.37;76.20
1480;BME280;732;51.698;4.886;2023-05-14T01:49:38;102084.66;;;9.31;76.37
1480;BME280;732;51.698;4.886;2023-05-14T01:52:07;102085.94;;;9.26;76.61
1480;BME280;732;51.698;4.886;2023-05-14T01:54:36;102086.22;;;9.43;76.08
1480;BME280;732;51.698;4.886;2023-05-14T01:57:05;102088.34;;;9.20;76.65
1480;BME280;732;51.698;4.886;2023-05-14T01:59:33;102092.13;;;9.37;75.89
1480;BME280;732;51.698;4.886;2023-05-14T02:02:02;102088.63;;;9.26;76.62
1480;BME280;732;51.698;4.886;2023-05-14T02:04:30;102088.63;;;9.26;76.26
1480;BME280;732;51.698;4.886;2023-05-14T02:06:58;102097.09;;;9.12;76.90
1480;BME280;732;51.698;4.886;2023-05-14T02:09:26;102061.19;;;8.85;77.51
1480;BME280;732;51.698;4.886;2023-05-14T02:11:56;102089.34;;;9.09;77.40
1480;BME280;732;51.698;4.886;2023-05-14T02:14:24;102097.69;;;8.96;78.09
1480;BME280;732;51.698;4.886;2023-05-14T02:16:53;102093.44;;;8.93;77.77
1480;BME280;732;51.698;4.886;2023-05-14T02:19:21;102092.00;;;8.79;78.33
1480;BME280;732;51.698;4.886;2023-05-14T02:21:49;102083.28;;;8.97;77.62
1480;BME280;732;51.698;4.886;2023-05-14T02:24:17;102088.06;;;9.03;77.06
1480;BME280;732;51.698;4.886;2023-05-14T02:26:46;102071.31;;;8.82;78.03
1480;BME280;732;51.698;4.886;2023-05-14T02:29:15;102081.31;;;8.89;77.80
1480;BME280;732;51.698;4.886;2023-05-14T02:31:44;102078.38;;;8.92;77.56
1480;BME280;732;51.698;4.886;2023-05-14T02:34:12;102076.09;;;8.78;77.96
1480;BME280;732;51.698;4.886;2023-05-14T02:36:41;102073.84;;;8.83;77.90
1480;BME280;732;51.698;4.886;2023-05-14T02:39:09;102069.91;;;8.77;77.87
1480;BME280;732;51.698;4.886;2023-05-14T02:41:37;102053.31;;;8.74;77.59
1480;BME280;732;51.698;4.886;2023-05-14T02:44:06;102063.44;;;8.90;76.95
1480;BME280;732;51.698;4.886;2023-05-14T02:46:35;102051.91;;;8.60;77.95
1480;BME280;732;51.698;4.886;2023-05-14T02:49:04;102059.34;;;8.76;77.79
1480;BME280;732;51.698;4.886;2023-05-14T02:51:32;102066.94;;;8.81;77.37
1480;BME280;732;51.698;4.886;2023-05-14T02:54:00;102064.28;;;8.71;78.19
1480;BME280;732;51.698;4.886;2023-05-14T02:56:28;102074.00;;;8.82;77.42
1480;BME280;732;51.698;4.886;2023-05-14T02:58:57;102064.97;;;8.73;77.84
1480;BME280;732;51.698;4.886;2023-05-14T03:01:25;102066.41;;;8.57;78.26
1480;BME280;732;51.698;4.886;2023-05-14T03:03:56;102048.50;;;8.48;78.56
1480;BME280;732;51.698;4.886;2023-05-14T03:06:24;102059.94;;;8.70;77.80
1480;BME280;732;51.698;4.886;2023-05-14T03:08:52;102057.09;;;8.61;78.38
1480;BME280;732;51.698;4.886;2023-05-14T03:11:21;102059.34;;;8.66;78.12
1480;BME280;732;51.698;4.886;2023-05-14T03:13:49;102059.91;;;8.50;78.63
1480;BME280;732;51.698;4.886;2023-05-14T03:16:17;102041.97;;;8.31;79.31
1480;BME280;732;51.698;4.886;2023-05-14T03:18:46;102068.44;;;8.24;80.06
1480;BME280;732;51.698;4.886;2023-05-14T03:21:15;102068.03;;;8.29;79.82
1480;BME280;732;51.698;4.886;2023-05-14T03:23:44;102059.84;;;8.21;80.20
1480;BME280;732;51.698;4.886;2023-05-14T03:26:12;102056.41;;;7.99;81.04
1480;BME280;732;51.698;4.886;2023-05-14T03:28:40;102058.84;;;8.12;80.42
1480;BME280;732;51.698;4.886;2023-05-14T03:31:08;102038.53;;;8.00;80.76
1480;BME280;732;51.698;4.886;2023-05-14T03:33:36;102038.91;;;7.95;81.21
1480;BME280;732;51.698;4.886;2023-05-14T03:36:05;102042.50;;;8.05;81.03
1480;BME280;732;51.698;4.886;2023-05-14T03:38:35;102040.75;;;7.94;81.23
1480;BME280;732;51.698;4.886;2023-05-14T03:41:03;102037.25;;;7.94;81.09
1480;BME280;732;51.698;4.886;2023-05-14T03:43:31;102041.78;;;8.03;80.88
1480;BME280;732;51.698;4.886;2023-05-14T03:46:00;102037.31;;;8.13;80.39
1480;BME280;732;51.698;4.886;2023-05-14T03:48:28;102038.00;;;8.06;80.35
1480;BME280;732;51.698;4.886;2023-05-14T03:50:56;102010.53;;;7.94;80.08
1480;BME280;732;51.698;4.886;2023-05-14T03:53:25;102034.91;;;8.10;80.11
1480;BME280;732;51.698;4.886;2023-05-14T03:55:54;102035.19;;;7.97;80.33
1480;BME280;732;51.698;4.886;2023-05-14T03:58:22;102043.66;;;8.12;80.16
1480;BME280;732;51.698;4.886;2023-05-14T04:00:52;102006.13;;;7.83;79.96
1480;BME280;732;51.698;4.886;2023-05-14T04:03:20;102011.91;;;7.88;79.91
1480;BME280;732;51.698;4.886;2023-05-14T04:05:50;102040.84;;;8.14;79.67
1480;BME280;732;51.698;4.886;2023-05-14T04:08:18;102037.72;;;7.99;80.17
1480;BME280;732;51.698;4.886;2023-05-14T04:10:46;102040.53;;;8.07;80.21
1480;BME280;732;51.698;4.886;2023-05-14T04:13:16;102029.53;;;8.01;79.87
1480;BME280;732;51.698;4.886;2023-05-14T04:15:44;102040.53;;;8.07;79.89
1480;BME280;732;51.698;4.886;2023-05-14T04:18:12;102044.50;;;8.13;79.86
1480;BME280;732;51.698;4.886;2023-05-14T04:20:41;102045.63;;;8.20;79.98
1480;BME280;732;51.698;4.886;2023-05-14T04:23:09;102044.47;;;8.03;80.56
1480;BME280;732;51.698;4.886;2023-05-14T04:25:37;102035.66;;;8.32;79.79
1480;BME280;732;51.698;4.886;2023-05-14T04:28:05;102033.97;;;8.31;79.55
1480;BME280;732;51.698;4.886;2023-05-14T04:30:35;102017.91;;;8.31;79.18
1480;BME280;732;51.698;4.886;2023-05-14T04:33:03;102037.22;;;8.54;79.04
1480;BME280;732;51.698;4.886;2023-05-14T04:35:32;102040.63;;;8.56;78.75
1480;BME280;732;51.698;4.886;2023-05-14T04:38:00;102038.22;;;8.73;78.45
1480;BME280;732;51.698;4.886;2023-05-14T04:40:29;102026.81;;;8.71;78.61
1480;BME280;732;51.698;4.886;2023-05-14T04:42:57;102029.22;;;8.93;77.95
1480;BME280;732;51.698;4.886;2023-05-14T04:45:26;102031.28;;;9.09;77.31
1480;BME280;732;51.698;4.886;2023-05-14T04:47:55;102031.16;;;9.01;77.23
1480;BME280;732;51.698;4.886;2023-05-14T04:50:23;102039.19;;;9.01;77.14
1480;BME280;732;51.698;4.886;2023-05-14T04:52:52;102033.13;;;8.99;77.14
1480;BME280;732;51.698;4.886;2023-05-14T04:55:21;102019.03;;;8.97;76.66
1480;BME280;732;51.698;4.886;2023-05-14T04:57:50;102035.53;;;9.02;76.42
1480;BME280;732;51.698;4.886;2023-05-14T05:00:18;102037.91;;;9.05;76.97
1480;BME280;732;51.698;4.886;2023-05-14T05:02:48;102036.06;;;9.06;77.04
1480;BME280;732;51.698;4.886;2023-05-14T05:05:18;102030.47;;;8.99;77.45
1480;BME280;732;51.698;4.886;2023-05-14T05:07:46;102039.63;;;9.06;76.97
1480;BME280;732;51.698;4.886;2023-05-14T05:10:14;102034.28;;;8.77;77.99
1480;BME280;732;51.698;4.886;2023-05-14T05:12:43;102048.53;;;8.87;78.19
1480;BME280;732;51.698;4.886;2023-05-14T05:15:11;102032.16;;;8.71;78.42
1480;BME280;732;51.698;4.886;2023-05-14T05:17:39;102048.63;;;8.86;78.31
1480;BME280;732;51.698;4.886;2023-05-14T05:20:09;102015.69;;;8.75;78.45
1480;BME280;732;51.698;4.886;2023-05-14T05:22:39;102042.69;;;9.11;77.62
1480;BME280;732;51.698;4.886;2023-05-14T05:25:08;102044.09;;;9.16;77.44
1480;BME280;732;51.698;4.886;2023-05-14T05:27:38;102043.44;;;9.04;77.82
1480;BME280;732;51.698;4.886;2023-05-14T05:30:07;102051.00;;;9.18;77.56
1480;BME280;732;51.698;4.886;2023-05-14T05:32:36;102047.75;;;9.24;77.28
1480;BME280;732;51.698;4.886;2023-05-14T05:35:05;102048.88;;;9.12;77.81
1480;BME280;732;51.698;4.886;2023-05-14T05:37:33;102040.59;;;8.95;78.41
1480;BME280;732;51.698;4.886;2023-05-14T05:40:05;102048.78;;;9.14;77.93
1480;BME280;732;51.698;4.886;2023-05-14T05:42:34;102045.34;;;9.31;77.47
1480;BME280;732;51.698;4.886;2023-05-14T05:45:02;102050.81;;;9.49;76.83
1480;BME280;732;51.698;4.886;2023-05-14T05:47:31;102055.63;;;9.46;76.82
1480;BME280;732;51.698;4.886;2023-05-14T05:50:00;102055.91;;;9.52;76.55
1480;BME280;732;51.698;4.886;2023-05-14T05:52:28;102059.09;;;9.66;75.99
1480;BME280;732;51.698;4.886;2023-05-14T05:54:57;102031.69;;;9.72;75.68
1480;BME280;732;51.698;4.886;2023-05-14T05:57:26;102064.47;;;9.66;76.21
1480;BME280;732;51.698;4.886;2023-05-14T05:59:54;102056.44;;;9.94;75.44
1480;BME280;732;51.698;4.886;2023-05-14T06:02:23;102056.63;;;9.82;75.24
1480;BME280;732;51.698;4.886;2023-05-14T06:04:51;102056.28;;;9.67;75.47
1480;BME280;732;51.698;4.886;2023-05-14T06:07:19;102060.78;;;9.57;75.76
1480;BME280;732;51.698;4.886;2023-05-14T06:09:47;102056.53;;;9.64;75.75
1480;BME280;732;51.698;4.886;2023-05-14T06:12:15;102060.09;;;9.93;75.42
1480;BME280;732;51.698;4.886;2023-05-14T06:14:45;102062.03;;;10.00;74.72
1480;BME280;732;51.698;4.886;2023-05-14T06:17:14;102066.19;;;10.13;74.43
1480;BME280;732;51.698;4.886;2023-05-14T06:19:42;102036.41;;;9.88;74.43
1480;BME280;732;51.698;4.886;2023-05-14T06:22:10;102064.13;;;10.06;74.41
1480;BME280;732;51.698;4.886;2023-05-14T06:24:39;102057.13;;;10.42;73.60
1480;BME280;732;51.698;4.886;2023-05-14T06:27:08;102062.03;;;10.28;73.93
1480;BME280;732;51.698;4.886;2023-05-14T06:29:37;102067.06;;;10.13;74.27
1480;BME280;732;51.698;4.886;2023-05-14T06:32:07;102072.44;;;10.13;74.45
1480;BME280;732;51.698;4.886;2023-05-14T06:34:36;102078.00;;;10.02;75.38
1480;BME280;732;51.698;4.886;2023-05-14T06:37:04;102071.69;;;10.21;75.37
1480;BME280;732;51.698;4.886;2023-05-14T06:39:33;102079.22;;;10.53;74.50
1480;BME280;732;51.698;4.886;2023-05-14T06:42:01;102085.03;;;10.77;73.94
1480;BME280;732;51.698;4.886;2023-05-14T06:44:30;102074.94;;;10.61;73.90
1480;BME280;732;51.698;4.886;2023-05-14T06:46:58;102081.28;;;10.69;73.73
1480;BME280;732;51.698;4.886;2023-05-14T06:49:28;102065.59;;;11.01;73.18
1480;BME280;732;51.698;4.886;2023-05-14T06:51:56;102080.53;;;11.22;72.63
1480;BME280;732;51.698;4.886;2023-05-14T06:54:24;102089.00;;;11.35;71.96
1480;BME280;732;51.698;4.886;2023-05-14T06:56:53;102069.09;;;11.19;71.83
1480;BME280;732;51.698;4.886;2023-05-14T06:59:21;102078.84;;;11.47;71.28
1480;BME280;732;51.698;4.886;2023-05-14T07:01:49;102085.66;;;11.59;71.12
1480;BME280;732;51.698;4.886;2023-05-14T07:04:18;102080.84;;;11.71;70.60
1480;BME280;732;51.698;4.886;2023-05-14T07:06:48;102085.19;;;11.90;70.27
1480;BME280;732;51.698;4.886;2023-05-14T07:09:16;102089.41;;;12.01;69.71
1480;BME280;732;51.698;4.886;2023-05-14T07:11:44;102079.78;;;12.33;69.06
1480;BME280;732;51.698;4.886;2023-05-14T07:14:12;102089.75;;;12.57;68.31
1480;BME280;732;51.698;4.886;2023-05-14T07:16:40;102092.13;;;12.77;67.44
1480;BME280;732;51.698;4.886;2023-05-14T07:19:09;102092.38;;;13.00;66.96
1480;BME280;732;51.698;4.886;2023-05-14T07:21:37;102074.78;;;12.46;66.44
1480;BME280;732;51.698;4.886;2023-05-14T07:24:07;102078.03;;;12.75;66.96
1480;BME280;732;51.698;4.886;2023-05-14T07:26:35;102087.44;;;12.79;65.75
1480;BME280;732;51.698;4.886;2023-05-14T07:29:05;102084.25;;;12.92;65.76
1480;BME280;732;51.698;4.886;2023-05-14T07:31:33;102060.66;;;12.53;66.60
1480;BME280;732;51.698;4.886;2023-05-14T07:34:02;102080.56;;;12.93;66.05
1480;BME280;732;51.698;4.886;2023-05-14T07:36:30;102058.50;;;13.14;64.38
1480;BME280;732;51.698;4.886;2023-05-14T07:38:59;102082.25;;;13.10;64.64
1480;BME280;732;51.698;4.886;2023-05-14T07:41:28;102073.28;;;13.43;63.92
1480;BME280;732;51.698;4.886;2023-05-14T07:43:56;102036.28;;;12.95;64.37
1480;BME280;732;51.698;4.886;2023-05-14T07:46:25;102076.84;;;13.27;64.74
1480;BME280;732;51.698;4.886;2023-05-14T07:48:53;102079.22;;;12.97;64.76
1480;BME280;732;51.698;4.886;2023-05-14T07:51:21;102073.50;;;13.17;64.65
1480;BME280;732;51.698;4.886;2023-05-14T07:53:49;102042.34;;;13.14;62.85
1480;BME280;732;51.698;4.886;2023-05-14T07:56:18;102034.22;;;13.30;63.22
1480;BME280;732;51.698;4.886;2023-05-14T07:58:49;102056.91;;;13.53;62.89
1480;BME280;732;51.698;4.886;2023-05-14T08:01:17;102063.91;;;13.78;62.73
1480;BME280;732;51.698;4.886;2023-05-14T08:03:45;102073.41;;;13.58;61.93
1480;BME280;732;51.698;4.886;2023-05-14T08:06:14;102063.81;;;13.63;61.80
1480;BME280;732;51.698;4.886;2023-05-14T08:08:42;102067.91;;;13.99;61.74
1480;BME280;732;51.698;4.886;2023-05-14T08:11:10;102069.97;;;13.81;62.44
1480;BME280;732;51.698;4.886;2023-05-14T08:13:39;102060.84;;;13.90;61.91
1480;BME280;732;51.698;4.886;2023-05-14T08:16:08;102033.00;;;13.98;61.23
1480;BME280;732;51.698;4.886;2023-05-14T08:18:37;102063.53;;;14.30;60.60
1480;BME280;732;51.698;4.886;2023-05-14T08:21:05;102067.81;;;14.47;61.07
1480;BME280;732;51.698;4.886;2023-05-14T08:23:33;102069.25;;;14.35;60.58
1480;BME280;732;51.698;4.886;2023-05-14T08:26:02;102068.16;;;14.44;60.37
1480;BME280;732;51.698;4.886;2023-05-14T08:28:30;102068.97;;;14.76;60.21
1480;BME280;732;51.698;4.886;2023-05-14T08:30:58;102055.88;;;15.26;58.83
1480;BME280;732;51.698;4.886;2023-05-14T08:33:28;102063.94;;;15.49;58.21
1480;BME280;732;51.698;4.886;2023-05-14T08:35:56;102062.63;;;15.60;57.77
1480;BME280;732;51.698;4.886;2023-05-14T08:38:26;102073.06;;;15.63;58.55
1480;BME280;732;51.698;4.886;2023-05-14T08:40:56;102065.72;;;16.24;57.33
1480;BME280;732;51.698;4.886;2023-05-14T08:43:28;102075.59;;;16.90;53.95
1480;BME280;732;51.698;4.886;2023-05-14T08:46:00;102074.75;;;17.39;53.68
1480;BME280;732;51.698;4.886;2023-05-14T08:48:32;102072.22;;;17.38;53.09
1480;BME280;732;51.698;4.886;2023-05-14T08:51:01;102061.19;;;17.11;53.56
1480;BME280;732;51.698;4.886;2023-05-14T08:53:30;102057.16;;;17.00;53.83
1480;BME280;732;51.698;4.886;2023-05-14T08:55:59;102060.69;;;17.00;52.70
1480;BME280;732;51.698;4.886;2023-05-14T08:58:28;102052.97;;;16.76;54.07
1480;BME280;732;51.698;4.886;2023-05-14T09:00:56;102053.41;;;16.79;52.88
1480;BME280;732;51.698;4.886;2023-05-14T09:03:24;102048.16;;;17.28;53.50
1480;BME280;732;51.698;4.886;2023-05-14T09:05:55;102039.91;;;17.78;52.70
1480;BME280;732;51.698;4.886;2023-05-14T09:08:26;102045.47;;;18.11;51.75
1480;BME280;732;51.698;4.886;2023-05-14T09:10:54;102032.84;;;18.45;51.24
1480;BME280;732;51.698;4.886;2023-05-14T09:13:22;102044.59;;;18.80;50.27
1480;BME280;732;51.698;4.886;2023-05-14T09:15:54;102033.47;;;19.15;49.60
1480;BME280;732;51.698;4.886;2023-05-14T09:18:23;102030.09;;;19.33;49.82
1480;BME280;732;51.698;4.886;2023-05-14T09:20:52;102030.56;;;19.16;48.48
1480;BME280;732;51.698;4.886;2023-05-14T09:23:24;102010.88;;;19.34;48.61
1480;BME280;732;51.698;4.886;2023-05-14T09:25:53;102022.41;;;19.09;48.41
1480;BME280;732;51.698;4.886;2023-05-14T09:28:22;102014.66;;;18.86;49.08
1480;BME280;732;51.698;4.886;2023-05-14T09:30:54;102021.78;;;18.74;50.63
1480;BME280;732;51.698;4.886;2023-05-14T09:33:26;102010.59;;;18.22;50.10
1480;BME280;732;51.698;4.886;2023-05-14T09:35:57;102028.69;;;17.88;51.68
1480;BME280;732;51.698;4.886;2023-05-14T09:38:31;102028.66;;;17.81;51.91
1480;BME280;732;51.698;4.886;2023-05-14T09:41:00;102011.56;;;17.94;52.35
1480;BME280;732;51.698;4.886;2023-05-14T09:43:28;102014.00;;;17.69;52.66
1480;BME280;732;51.698;4.886;2023-05-14T09:45:56;102019.41;;;17.69;52.38
1480;BME280;732;51.698;4.886;2023-05-14T09:48:25;102019.28;;;17.84;53.61
1480;BME280;732;51.698;4.886;2023-05-14T09:50:53;102016.44;;;18.12;52.51
1480;BME280;732;51.698;4.886;2023-05-14T09:53:22;102012.09;;;18.31;51.24
1480;BME280;732;51.698;4.886;2023-05-14T09:55:51;102009.00;;;18.48;51.57
1480;BME280;732;51.698;4.886;2023-05-14T09:58:20;102001.72;;;18.48;51.48
1480;BME280;732;51.698;4.886;2023-05-14T10:00:49;102005.69;;;18.72;51.54
1480;BME280;732;51.698;4.886;2023-05-14T10:03:19;102008.78;;;18.42;50.76
1480;BME280;732;51.698;4.886;2023-05-14T10:05:49;102014.03;;;18.57;51.25
1480;BME280;732;51.698;4.886;2023-05-14T10:08:26;102010.50;;;18.64;52.47
1480;BME280;732;51.698;4.886;2023-05-14T10:10:58;101995.03;;;18.84;51.28
1480;BME280;732;51.698;4.886;2023-05-14T10:13:34;101983.50;;;18.55;50.46
1480;BME280;732;51.698;4.886;2023-05-14T10:16:10;101996.19;;;18.28;51.31
1480;BME280;732;51.698;4.886;2023-05-14T10:18:46;102006.63;;;18.11;51.88
1480;BME280;732;51.698;4.886;2023-05-14T10:21:20;102003.09;;;18.17;52.39
1480;BME280;732;51.698;4.886;2023-05-14T10:23:49;101996.53;;;17.98;53.41
1480;BME280;732;51.698;4.886;2023-05-14T10:26:19;101990.28;;;17.91;54.43
1480;BME280;732;51.698;4.886;2023-05-14T10:28:50;101986.16;;;18.22;53.31
1480;BME280;732;51.698;4.886;2023-05-14T10:31:22;101965.88;;;18.18;52.94
1480;BME280;732;51.698;4.886;2023-05-14T10:33:50;101979.75;;;18.70;53.64
1480;BME280;732;51.698;4.886;2023-05-14T10:36:21;101984.94;;;19.12;51.89
1480;BME280;732;51.698;4.886;2023-05-14T10:38:54;101974.88;;;19.12;52.33
1480;BME280;732;51.698;4.886;2023-05-14T10:41:25;101980.53;;;19.24;51.29
1480;BME280;732;51.698;4.886;2023-05-14T10:43:56;101968.25;;;18.61;52.74
1480;BME280;732;51.698;4.886;2023-05-14T10:46:26;101977.03;;;18.63;52.28
1480;BME280;732;51.698;4.886;2023-05-14T10:48:56;101974.47;;;18.28;51.71
1480;BME280;732;51.698;4.886;2023-05-14T10:51:24;101977.25;;;18.48;51.60
1480;BME280;732;51.698;4.886;2023-05-14T10:53:52;101968.47;;;18.66;52.95
1480;BME280;732;51.698;4.886;2023-05-14T10:56:21;101967.59;;;18.92;51.28
1480;BME280;732;51.698;4.886;2023-05-14T10:58:51;101964.59;;;19.27;52.24
1480;BME280;732;51.698;4.886;2023-05-14T11:01:27;101974.66;;;19.14;51.01
1480;BME280;732;51.698;4.886;2023-05-14T11:03:57;101962.03;;;19.53;51.47
1480;BME280;732;51.698;4.886;2023-05-14T11:06:26;101957.44;;;19.92;50.68
1480;BME280;732;51.698;4.886;2023-05-14T11:08:54;101955.16;;;19.82;48.91
1480;BME280;732;51.698;4.886;2023-05-14T11:11:23;101949.91;;;19.94;49.47
1480;BME280;732;51.698;4.886;2023-05-14T11:13:53;101951.63;;;19.75;49.78
1480;BME280;732;51.698;4.886;2023-05-14T11:16:22;101937.72;;;19.58;49.24
1480;BME280;732;51.698;4.886;2023-05-14T11:19:00;101951.47;;;18.98;49.49
1480;BME280;732;51.698;4.886;2023-05-14T11:21:30;101953.56;;;19.02;51.58
1480;BME280;732;51.698;4.886;2023-05-14T11:23:59;101950.41;;;19.19;50.46
1480;BME280;732;51.698;4.886;2023-05-14T11:26:27;101943.06;;;19.26;50.23
1480;BME280;732;51.698;4.886;2023-05-14T11:28:57;101944.94;;;19.32;50.27
1480;BME280;732;51.698;4.886;2023-05-14T11:31:26;101941.81;;;19.15;50.99
1480;BME280;732;51.698;4.886;2023-05-14T11:33:55;101936.34;;;19.29;50.64
1480;BME280;732;51.698;4.886;2023-05-14T11:36:23;101933.66;;;19.67;50.66
1480;BME280;732;51.698;4.886;2023-05-14T11:38:52;101916.06;;;20.09;50.17
1480;BME280;732;51.698;4.886;2023-05-14T11:41:20;101932.59;;;20.39;48.96
1480;BME280;732;51.698;4.886;2023-05-14T11:43:49;101920.50;;;20.03;48.20
1480;BME280;732;51.698;4.886;2023-05-14T11:46:19;101921.88;;;20.19;47.24
1480;BME280;732;51.698;4.886;2023-05-14T11:48:47;101926.06;;;19.83;46.94
1480;BME280;732;51.698;4.886;2023-05-14T11:51:16;101915.38;;;19.81;48.49
1480;BME280;732;51.698;4.886;2023-05-14T11:53:44;101909.66;;;19.89;48.41
1480;BME280;732;51.698;4.886;2023-05-14T11:56:13;101918.91;;;20.46;48.44
1480;BME280;732;51.698;4.886;2023-05-14T11:58:47;101923.19;;;20.35;47.21
1480;BME280;732;51.698;4.886;2023-05-14T12:01:15;101915.69;;;20.30;48.17
1480;BME280;732;51.698;4.886;2023-05-14T12:03:45;101909.88;;;19.95;46.74
1480;BME280;732;51.698;4.886;2023-05-14T12:06:14;101907.59;;;19.85;47.29
1480;BME280;732;51.698;4.886;2023-05-14T12:08:42;101897.56;;;19.79;47.54
1480;BME280;732;51.698;4.886;2023-05-14T12:11:10;101911.63;;;20.39;47.43
1480;BME280;732;51.698;4.886;2023-05-14T12:13:38;101909.16;;;20.82;45.41
1480;BME280;732;51.698;4.886;2023-05-14T12:16:07;101909.94;;;20.89;45.62
1480;BME280;732;51.698;4.886;2023-05-14T12:18:36;101902.88;;;21.00;45.43
1480;BME280;732;51.698;4.886;2023-05-14T12:21:06;101898.72;;;20.97;43.58
1480;BME280;732;51.698;4.886;2023-05-14T12:23:35;101891.28;;;21.04;44.85
1480;BME280;732;51.698;4.886;2023-05-14T12:26:07;101890.84;;;21.08;46.10
1480;BME280;732;51.698;4.886;2023-05-14T12:28:38;101864.16;;;20.91;44.07
1480;BME280;732;51.698;4.886;2023-05-14T12:31:09;101883.69;;;21.25;43.32
1480;BME280;732;51.698;4.886;2023-05-14T12:33:37;101883.81;;;21.30;43.24
1480;BME280;732;51.698;4.886;2023-05-14T12:36:07;101878.38;;;21.12;43.13
1480;BME280;732;51.698;4.886;2023-05-14T12:38:48;101867.81;;;21.03;42.38
1480;BME280;732;51.698;4.886;2023-05-14T12:41:17;101870.19;;;21.12;43.15
1480;BME280;732;51.698;4.886;2023-05-14T12:43:47;101877.75;;;21.47;43.47
1480;BME280;732;51.698;4.886;2023-05-14T12:46:16;101870.34;;;21.66;44.31
1480;BME280;732;51.698;4.886;2023-05-14T12:48:44;101865.88;;;21.41;43.84
1480;BME280;732;51.698;4.886;2023-05-14T12:51:14;101871.19;;;21.66;43.50
1480;BME280;732;51.698;4.886;2023-05-14T12:53:42;101864.03;;;21.35;42.18
1480;BME280;732;51.698;4.886;2023-05-14T12:56:11;101867.06;;;21.76;43.57
1480;BME280;732;51.698;4.886;2023-05-14T12:58:40;101864.09;;;21.77;41.72
1480;BME280;732;51.698;4.886;2023-05-14T13:01:08;101856.16;;;21.88;39.67
1480;BME280;732;51.698;4.886;2023-05-14T13:03:37;101863.97;;;21.84;40.15
1480;BME280;732;51.698;4.886;2023-05-14T13:06:06;101854.91;;;22.14;40.07
1480;BME280;732;51.698;4.886;2023-05-14T13:08:36;101854.31;;;22.24;41.49
1480;BME280;732;51.698;4.886;2023-05-14T13:11:04;101850.38;;;22.08;41.66
1480;BME280;732;51.698;4.886;2023-05-14T13:13:32;101850.50;;;22.13;39.50
1480;BME280;732;51.698;4.886;2023-05-14T13:16:01;101849.81;;;22.06;39.24
1480;BME280;732;51.698;4.886;2023-05-14T13:18:29;101855.66;;;21.79;39.86
1480;BME280;732;51.698;4.886;2023-05-14T13:20:58;101834.41;;;21.39;38.63
1480;BME280;732;51.698;4.886;2023-05-14T13:23:26;101846.34;;;21.56;40.63
1480;BME280;732;51.698;4.886;2023-05-14T13:25:55;101842.94;;;21.73;38.33
1480;BME280;732;51.698;4.886;2023-05-14T13:28:24;101847.94;;;21.76;38.14
1480;BME280;732;51.698;4.886;2023-05-14T13:31:04;101844.47;;;22.11;38.77
1480;BME280;732;51.698;4.886;2023-05-14T13:33:40;101840.94;;;21.80;36.11
1480;BME280;732;51.698;4.886;2023-05-14T13:36:10;101839.88;;;21.93;39.64
1480;BME280;732;51.698;4.886;2023-05-14T13:38:38;101824.84;;;22.38;40.65